createdAt,value
2018-02-03T00:04:41.417Z,93.85
2018-02-03T00:25:19.147Z,92.96
2018-02-03T00:45:53.799Z,93.91
2018-02-03T01:06:29.994Z,93.51
2018-02-03T01:27:04.625Z,93.94
2018-02-03T01:47:55.956Z,94.22
2018-02-03T02:08:30.858Z,94.15
2018-02-03T02:29:05.210Z,94.33
2018-02-03T02:49:41.403Z,94.92
2018-02-03T03:28:17.116Z,94.23
2018-02-03T03:48:51.461Z,93.89
2018-02-03T04:09:26.783Z,93.83
2018-02-03T04:30:04.283Z,93.63
2018-02-03T04:50:41.270Z,93.61
2018-02-03T05:11:16.830Z,93.79
2018-02-03T05:31:55.017Z,93.89
2018-02-03T05:52:31.077Z,94.26
2018-02-03T06:13:06.344Z,93.79
2018-02-03T06:33:37.323Z,93.70
2018-02-03T06:54:11.964Z,93.56
2018-02-03T07:14:46.943Z,93.82
2018-02-03T07:35:23.137Z,94.15
2018-02-03T07:56:02.643Z,94.40
2018-02-03T08:16:37.668Z,93.57
2018-02-03T08:37:11.714Z,94.74
2018-02-03T08:57:46.065Z,90.50
2018-02-03T09:18:21.547Z,91.56
2018-02-03T09:38:58.448Z,89.62
2018-02-03T09:59:33.718Z,87.16
2018-02-03T10:20:08.991Z,84.16
2018-02-03T10:40:43.343Z,83.15
2018-02-03T11:01:17.708Z,81.99
2018-02-03T11:21:52.656Z,80.55
2018-02-03T11:42:29.177Z,81.81
2018-02-03T12:03:02.384Z,78.68
2018-02-03T12:23:36.325Z,77.04
2018-02-03T12:44:11.835Z,77.89
2018-02-03T13:04:46.059Z,78.91
2018-02-03T13:25:23.674Z,75.76
2018-02-03T13:45:57.530Z,75.36
2018-02-03T14:06:39.746Z,73.14
2018-02-03T14:27:15.059Z,71.91
2018-02-03T14:47:46.912Z,78.96
2018-02-03T15:08:23.509Z,75.62
2018-02-03T15:28:57.456Z,83.71
2018-02-03T15:49:32.727Z,86.32
2018-02-03T16:10:07.998Z,86.04
2018-02-03T16:30:44.193Z,83.23
2018-02-03T16:51:21.684Z,81.95
2018-02-03T17:11:57.508Z,86.32
2018-02-03T17:32:34.004Z,87.26
2018-02-03T17:53:09.383Z,89.30
2018-02-03T18:13:43.319Z,90.55
2018-02-03T18:34:15.529Z,90.91
2018-02-03T18:54:50.788Z,91.25
2018-02-03T19:15:25.250Z,91.11
2018-02-03T19:35:58.464Z,92.34
2018-02-03T19:56:33.688Z,92.83
2018-02-03T20:17:07.573Z,93.78
2018-02-03T20:37:44.691Z,93.81
2018-02-03T20:58:18.121Z,94.10
2018-02-03T21:18:52.587Z,93.78
2018-02-03T21:39:25.798Z,93.65
2018-02-03T21:59:57.791Z,94.18
2018-02-03T22:20:33.992Z,93.15
2018-02-03T22:41:10.503Z,93.61
2018-02-03T23:01:43.607Z,92.22
2018-02-03T23:22:20.721Z,92.61
2018-02-03T23:42:54.774Z,92.81
